sensor_id;sensor_type;location;lat;lon;timestamp;pressure;altitude;pressure_sealevel;temperature;humidity
32638;BME280;19045;52.268;10.506;2022-10-30T00:01:31;100789.22;;;15.80;98.43
32638;BME280;19045;52.268;10.506;2022-10-30T00:03:57;100788.19;;;15.71;98.74
32638;BME280;19045;52.268;10.506;2022-10-30T00:06:24;100787.38;;;15.70;98.85
32638;BME280;19045;52.268;10.506;2022-10-30T00:08:50;100783.88;;;15.70;98.66
32638;BME280;19045;52.268;10.506;2022-10-30T00:11:18;100785.00;;;15.64;98.85
32638;BME280;19045;52.268;10.506;2022-10-30T00:13:45;100781.16;;;15.70;98.71
32638;BME280;19045;52.268;10.506;2022-10-30T00:16:12;100770.88;;;15.67;99.08
32638;BME280;19045;52.268;10.506;2022-10-30T00:18:39;100769.78;;;15.68;98.78
32638;BME280;19045;52.268;10.506;2022-10-30T00:21:07;100778.63;;;15.78;97.78
32638;BME280;19045;52.268;10.506;2022-10-30T00:23:34;100787.88;;;15.77;97.36
32638;BME280;19045;52.268;10.506;2022-10-30T00:26:02;100786.25;;;15.76;97.44
32638;BME280;19045;52.268;10.506;2022-10-30T00:28:30;100785.72;;;15.74;97.34
32638;BME280;19045;52.268;10.506;2022-10-30T00:30:58;100793.81;;;15.74;97.24
32638;BME280;19045;52.268;10.506;2022-10-30T00:33:25;100778.97;;;15.72;96.53
32638;BME280;19045;52.268;10.506;2022-10-30T00:35:51;100778.44;;;15.70;97.36
32638;BME280;19045;52.268;10.506;2022-10-30T00:38:18;100784.69;;;15.65;97.24
32638;BME280;19045;52.268;10.506;2022-10-30T00:40:45;100783.09;;;15.64;97.04
32638;BME280;19045;52.268;10.506;2022-10-30T00:43:37;100783.31;;;15.68;96.93
32638;BME280;19045;52.268;10.506;2022-10-30T00:46:07;100783.56;;;15.71;96.14
32638;BME280;19045;52.268;10.506;2022-10-30T00:48:39;100794.63;;;15.80;94.91
32638;BME280;19045;52.268;10.506;2022-10-30T00:51:08;100788.72;;;15.68;95.71
32638;BME280;19045;52.268;10.506;2022-10-30T00:53:35;100789.84;;;15.67;95.46
32638;BME280;19045;52.268;10.506;2022-10-30T00:56:06;100788.72;;;15.68;95.50
32638;BME280;19045;52.268;10.506;2022-10-30T00:58:40;100793.94;;;15.64;95.42
32638;BME280;19045;52.268;10.506;2022-10-30T01:01:11;100792.56;;;15.67;95.19
32638;BME280;19045;52.268;10.506;2022-10-30T01:03:39;100789.94;;;15.51;95.96
32638;BME280;19045;52.268;10.506;2022-10-30T01:06:09;100791.31;;;15.49;96.83
32638;BME280;19045;52.268;10.506;2022-10-30T01:08:37;100782.34;;;15.54;95.86
32638;BME280;19045;52.268;10.506;2022-10-30T01:11:04;100790.75;;;15.52;96.50
32638;BME280;19045;52.268;10.506;2022-10-30T01:13:33;100775.50;;;15.66;95.23
32638;BME280;19045;52.268;10.506;2022-10-30T01:16:29;100763.91;;;15.56;96.31
32638;BME280;19045;52.268;10.506;2022-10-30T01:19:02;100755.53;;;15.57;96.28
32638;BME280;19045;52.268;10.506;2022-10-30T01:21:42;100756.84;;;15.60;95.08
32638;BME280;19045;52.268;10.506;2022-10-30T01:24:25;100768.00;;;15.53;95.22
32638;BME280;19045;52.268;10.506;2022-10-30T01:27:03;100762.25;;;15.60;94.65
32638;BME280;19045;52.268;10.506;2022-10-30T01:29:42;100765.50;;;15.62;93.77
32638;BME280;19045;52.268;10.506;2022-10-30T01:32:20;100762.50;;;15.63;93.27
32638;BME280;19045;52.268;10.506;2022-10-30T01:34:57;100762.22;;;15.65;93.51
32638;BME280;19045;52.268;10.506;2022-10-30T01:37:31;100764.72;;;15.56;93.98
32638;BME280;19045;52.268;10.506;2022-10-30T01:40:04;100765.50;;;15.62;93.86
32638;BME280;19045;52.268;10.506;2022-10-30T01:42:46;100764.94;;;15.65;93.92
32638;BME280;19045;52.268;10.506;2022-10-30T01:45:21;100766.34;;;15.57;94.31
32638;BME280;19045;52.268;10.506;2022-10-30T01:48:00;100774.22;;;15.54;94.87
32638;BME280;19045;52.268;10.506;2022-10-30T01:50:37;100764.00;;;15.40;94.52
32638;BME280;19045;52.268;10.506;2022-10-30T01:53:15;100764.56;;;15.32;95.90
32638;BME280;19045;52.268;10.506;2022-10-30T01:55:54;100762.94;;;15.31;96.19
32638;BME280;19045;52.268;10.506;2022-10-30T01:58:30;100764.88;;;15.26;96.30
32638;BME280;19045;52.268;10.506;2022-10-30T02:01:00;100777.09;;;15.23;96.82
32638;BME280;19045;52.268;10.506;2022-10-30T02:03:29;100777.69;;;15.10;98.30
32638;BME280;19045;52.268;10.506;2022-10-30T02:05:56;100768.50;;;15.11;98.31
32638;BME280;19045;52.268;10.506;2022-10-30T02:08:23;100770.16;;;15.02;99.24
32638;BME280;19045;52.268;10.506;2022-10-30T02:10:52;100767.38;;;15.12;98.17
32638;BME280;19045;52.268;10.506;2022-10-30T02:13:19;100769.84;;;15.09;98.16
32638;BME280;19045;52.268;10.506;2022-10-30T02:15:47;100769.63;;;15.00;99.40
32638;BME280;19045;52.268;10.506;2022-10-30T02:18:15;100768.25;;;15.08;98.19
32638;BME280;19045;52.268;10.506;2022-10-30T02:20:43;100764.47;;;15.04;98.72
32638;BME280;19045;52.268;10.506;2022-10-30T02:23:10;100772.84;;;15.07;97.77
32638;BME280;19045;52.268;10.506;2022-10-30T02:25:43;100759.31;;;15.02;98.98
32638;BME280;19045;52.268;10.506;2022-10-30T02:28:10;100761.56;;;14.90;99.45
32638;BME280;19045;52.268;10.506;2022-10-30T02:30:37;100758.59;;;14.86;100.00
32638;BME280;19045;52.268;10.506;2022-10-30T02:33:04;100759.41;;;14.87;99.87
32638;BME280;19045;52.268;10.506;2022-10-30T02:35:31;100765.34;;;14.89;99.53
32638;BME280;19045;52.268;10.506;2022-10-30T02:38:01;100762.63;;;14.89;99.51
32638;BME280;19045;52.268;10.506;2022-10-30T02:40:28;100774.56;;;14.88;99.62
32638;BME280;19045;52.268;10.506;2022-10-30T02:42:55;100771.59;;;14.84;99.47
32638;BME280;19045;52.268;10.506;2022-10-30T02:45:21;100772.06;;;14.96;98.22
32638;BME280;19045;52.268;10.506;2022-10-30T02:47:48;100773.44;;;14.94;98.34
32638;BME280;19045;52.268;10.506;2022-10-30T02:50:15;100769.75;;;14.75;100.00
32638;BME280;19045;52.268;10.506;2022-10-30T02:52:41;100782.19;;;14.66;100.00
32638;BME280;19045;52.268;10.506;2022-10-30T02:55:09;100774.63;;;14.63;100.00
32638;BME280;19045;52.268;10.506;2022-10-30T02:57:36;100780.28;;;14.76;99.81
32638;BME280;19045;52.268;10.506;2022-10-30T03:00:04;100778.16;;;14.63;100.00
32638;BME280;19045;52.268;10.506;2022-10-30T03:02:31;100787.34;;;14.52;100.00
32638;BME280;19045;52.268;10.506;2022-10-30T03:04:57;100784.94;;;14.51;100.00
32638;BME280;19045;52.268;10.506;2022-10-30T03:07:24;100784.13;;;14.50;100.00
32638;BME280;19045;52.268;10.506;2022-10-30T03:09:51;100787.66;;;14.51;100.00
32638;BME280;19045;52.268;10.506;2022-10-30T03:12:20;100783.06;;;14.51;100.00
32638;BME280;19045;52.268;10.506;2022-10-30T03:14:46;100776.25;;;14.59;100.00
32638;BME280;19045;52.268;10.506;2022-10-30T03:17:13;100781.09;;;14.62;100.00
32638;BME280;19045;52.268;10.506;2022-10-30T03:19:39;100788.16;;;14.63;100.00
32638;BME280;19045;52.268;10.506;2022-10-30T03:22:06;100788.16;;;14.53;100.00
32638;BME280;19045;52.268;10.506;2022-10-30T03:24:33;100783.31;;;14.49;100.00
32638;BME280;19045;52.268;10.506;2022-10-30T03:27:00;100783.06;;;14.51;100.00
32638;BME280;19045;52.268;10.506;2022-10-30T03:29:28;100776.81;;;14.56;100.00
32638;BME280;19045;52.268;10.506;2022-10-30T03:31:55;100774.66;;;14.58;100.00
32638;BME280;19045;52.268;10.506;2022-10-30T03:34:22;100775.19;;;14.60;100.00
32638;BME280;19045;52.268;10.506;2022-10-30T03:36:48;100782.47;;;14.59;100.00
32638;BME280;19045;52.268;10.506;2022-10-30T03:39:15;100775.72;;;14.57;100.00
32638;BME280;19045;52.268;10.506;2022-10-30T03:41:41;100772.22;;;14.56;100.00
32638;BME280;19045;52.268;10.506;2022-10-30T03:44:08;100768.97;;;14.59;100.00
32638;BME280;19045;52.268;10.506;2022-10-30T03:46:36;100776.53;;;14.62;100.00
32638;BME280;19045;52.268;10.506;2022-10-30T03:49:03;100767.59;;;14.62;99.81
32638;BME280;19045;52.268;10.506;2022-10-30T03:51:30;100761.66;;;14.60;100.00
32638;BME280;19045;52.268;10.506;2022-10-30T03:53:57;100767.25;;;14.83;97.34
32638;BME280;19045;52.268;10.506;2022-10-30T03:56:23;100766.19;;;14.79;97.69
32638;BME280;19045;52.268;10.506;2022-10-30T03:58:50;100758.16;;;14.64;99.09
32638;BME280;19045;52.268;10.506;2022-10-30T04:01:16;100765.44;;;14.59;99.88
32638;BME280;19045;52.268;10.506;2022-10-30T04:03:44;100771.66;;;14.59;99.06
32638;BME280;19045;52.268;10.506;2022-10-30T04:06:11;100761.66;;;14.65;98.31
32638;BME280;19045;52.268;10.506;2022-10-30T04:08:37;100774.66;;;14.53;99.09
32638;BME280;19045;52.268;10.506;2022-10-30T04:11:04;100771.66;;;14.59;98.89
32638;BME280;19045;52.268;10.506;2022-10-30T04:13:31;100773.06;;;14.52;98.98
32638;BME280;19045;52.268;10.506;2022-10-30T04:15:57;100777.38;;;14.47;99.04
32638;BME280;19045;52.268;10.506;2022-10-30T04:18:24;100768.75;;;14.30;100.00
32638;BME280;19045;52.268;10.506;2022-10-30T04:20:52;100769.84;;;14.34;100.00
32638;BME280;19045;52.268;10.506;2022-10-30T04:23:20;100766.28;;;14.29;100.00
32638;BME280;19045;52.268;10.506;2022-10-30T04:25:47;100774.16;;;14.40;99.25
32638;BME280;19045;52.268;10.506;2022-10-30T04:28:14;100770.34;;;14.46;98.41
32638;BME280;19045;52.268;10.506;2022-10-30T04:30:41;100780.09;;;14.47;98.75
32638;BME280;19045;52.268;10.506;2022-10-30T04:33:10;100777.38;;;14.42;98.54
32638;BME280;19045;52.268;10.506;2022-10-30T04:35:37;100778.47;;;14.41;98.57
32638;BME280;19045;52.268;10.506;2022-10-30T04:38:07;100770.06;;;14.58;96.24
32638;BME280;19045;52.268;10.506;2022-10-30T04:40:36;100765.44;;;14.64;95.53
32638;BME280;19045;52.268;10.506;2022-10-30T04:43:03;100775.16;;;14.75;93.92
32638;BME280;19045;52.268;10.506;2022-10-30T04:45:30;100771.06;;;14.72;93.57
32638;BME280;19045;52.268;10.506;2022-10-30T04:48:00;100768.94;;;14.74;93.32
32638;BME280;19045;52.268;10.506;2022-10-30T04:50:28;100777.31;;;14.73;93.21
32638;BME280;19045;52.268;10.506;2022-10-30T04:52:59;100781.63;;;14.74;93.02
32638;BME280;19045;52.268;10.506;2022-10-30T04:55:27;100776.78;;;14.71;92.88
32638;BME280;19045;52.268;10.506;2022-10-30T04:57:55;100770.00;;;14.68;93.00
32638;BME280;19045;52.268;10.506;2022-10-30T05:00:22;100778.31;;;14.92;90.77
32638;BME280;19045;52.268;10.506;2022-10-30T05:02:49;100765.66;;;14.77;91.47
32638;BME280;19045;52.268;10.506;2022-10-30T05:05:15;100767.00;;;14.80;91.54
32638;BME280;19045;52.268;10.506;2022-10-30T05:07:42;100770.25;;;14.77;91.66
32638;BME280;19045;52.268;10.506;2022-10-30T05:10:10;100768.66;;;14.66;92.62
32638;BME280;19045;52.268;10.506;2022-10-30T05:12:40;100769.78;;;14.65;92.42
32638;BME280;19045;52.268;10.506;2022-10-30T05:15:07;100774.56;;;14.83;91.30
32638;BME280;19045;52.268;10.506;2022-10-30T05:17:34;100783.75;;;14.87;90.67
32638;BME280;19045;52.268;10.506;2022-10-30T05:20:01;100780.25;;;14.81;90.90
32638;BME280;19045;52.268;10.506;2022-10-30T05:22:28;100780.00;;;14.73;91.17
32638;BME280;19045;52.268;10.506;2022-10-30T05:24:54;100790.34;;;14.61;91.92
32638;BME280;19045;52.268;10.506;2022-10-30T05:27:21;100784.34;;;14.69;91.12
32638;BME280;19045;52.268;10.506;2022-10-30T05:29:49;100790.28;;;14.81;90.88
32638;BME280;19045;52.268;10.506;2022-10-30T05:32:16;100786.53;;;14.67;91.36
32638;BME280;19045;52.268;10.506;2022-10-30T05:34:43;100785.72;;;14.71;91.42
32638;BME280;19045;52.268;10.506;2022-10-30T05:37:10;100779.22;;;14.67;91.36
32638;BME280;19045;52.268;10.506;2022-10-30T05:39:37;100773.56;;;14.59;91.87
32638;BME280;19045;52.268;10.506;2022-10-30T05:42:03;100777.31;;;14.73;90.40
32638;BME280;19045;52.268;10.506;2022-10-30T05:44:30;100783.28;;;14.60;91.45
32638;BME280;19045;52.268;10.506;2022-10-30T05:46:58;100784.38;;;14.59;91.34
32638;BME280;19045;52.268;10.506;2022-10-30T05:49:24;100771.63;;;14.74;90.45
32638;BME280;19045;52.268;10.506;2022-10-30T05:51:51;100756.75;;;14.77;89.93
32638;BME280;19045;52.268;10.506;2022-10-30T05:54:18;100766.22;;;14.74;89.72
32638;BME280;19045;52.268;10.506;2022-10-30T05:56:44;100774.78;;;14.91;88.60
32638;BME280;19045;52.268;10.506;2022-10-30T05:59:11;100765.63;;;14.87;89.20
32638;BME280;19045;52.268;10.506;2022-10-30T06:01:38;100777.00;;;14.84;89.57
32638;BME280;19045;52.268;10.506;2022-10-30T06:04:06;100784.31;;;14.84;89.54
32638;BME280;19045;52.268;10.506;2022-10-30T06:06:33;100788.38;;;14.76;89.72
32638;BME280;19045;52.268;10.506;2022-10-30T06:09:00;100782.75;;;14.68;90.55
32638;BME280;19045;52.268;10.506;2022-10-30T06:11:26;100781.06;;;14.82;89.49
32638;BME280;19045;52.268;10.506;2022-10-30T06:13:53;100776.44;;;14.82;89.40
32638;BME280;19045;52.268;10.506;2022-10-30T06:16:20;100784.56;;;14.87;89.21
32638;BME280;19045;52.268;10.506;2022-10-30T06:18:47;100796.50;;;14.76;89.68
32638;BME280;19045;52.268;10.506;2022-10-30T06:21:15;100790.28;;;14.81;89.54
32638;BME280;19045;52.268;10.506;2022-10-30T06:23:41;100791.31;;;14.85;89.64
32638;BME280;19045;52.268;10.506;2022-10-30T06:26:08;100796.19;;;14.88;88.84
32638;BME280;19045;52.268;10.506;2022-10-30T06:28:34;100808.38;;;14.80;89.64
32638;BME280;19045;52.268;10.506;2022-10-30T06:31:01;100807.06;;;14.78;90.07
32638;BME280;19045;52.268;10.506;2022-10-30T06:33:28;100811.38;;;14.74;90.83
32638;BME280;19045;52.268;10.506;2022-10-30T06:35:54;100812.72;;;14.76;91.06
32638;BME280;19045;52.268;10.506;2022-10-30T06:38:22;100818.91;;;14.82;91.13
32638;BME280;19045;52.268;10.506;2022-10-30T06:40:49;100816.72;;;14.89;90.37
32638;BME280;19045;52.268;10.506;2022-10-30T06:43:17;100818.06;;;14.96;90.54
32638;BME280;19045;52.268;10.506;2022-10-30T06:45:43;100816.66;;;15.14;88.33
32638;BME280;19045;52.268;10.506;2022-10-30T06:48:10;100826.06;;;15.27;87.27
32638;BME280;19045;52.268;10.506;2022-10-30T06:50:36;100826.84;;;15.32;87.33
32638;BME280;19045;52.268;10.506;2022-10-30T06:53:03;100828.66;;;15.47;86.51
32638;BME280;19045;52.268;10.506;2022-10-30T06:55:31;100829.16;;;15.59;85.46
32638;BME280;19045;52.268;10.506;2022-10-30T06:57:58;100832.56;;;15.75;84.42
32638;BME280;19045;52.268;10.506;2022-10-30T07:00:25;100829.44;;;15.96;83.71
32638;BME280;19045;52.268;10.506;2022-10-30T07:02:58;100846.81;;;16.24;81.58
32638;BME280;19045;52.268;10.506;2022-10-30T07:05:26;100846.97;;;16.38;81.03
32638;BME280;19045;52.268;10.506;2022-10-30T07:07:55;100842.50;;;16.52;81.01
32638;BME280;19045;52.268;10.506;2022-10-30T07:10:22;100844.25;;;16.72;79.60
32638;BME280;19045;52.268;10.506;2022-10-30T07:12:54;100849.53;;;16.87;78.98
32638;BME280;19045;52.268;10.506;2022-10-30T07:15:23;100846.13;;;17.00;79.15
32638;BME280;19045;52.268;10.506;2022-10-30T07:17:51;100856.19;;;17.18;78.92
32638;BME280;19045;52.268;10.506;2022-10-30T07:20:19;100851.91;;;17.36;77.44
32638;BME280;19045;52.268;10.506;2022-10-30T07:22:46;100860.66;;;17.51;76.37
32638;BME280;19045;52.268;10.506;2022-10-30T07:25:12;100860.06;;;17.60;76.47
32638;BME280;19045;52.268;10.506;2022-10-30T07:27:42;100860.56;;;17.62;76.18
32638;BME280;19045;52.268;10.506;2022-10-30T07:30:12;100873.91;;;17.58;75.83
32638;BME280;19045;52.268;10.506;2022-10-30T07:32:39;100875.88;;;17.52;76.10
32638;BME280;19045;52.268;10.506;2022-10-30T07:35:07;100874.75;;;17.11;77.89
32638;BME280;19045;52.268;10.506;2022-10-30T07:37:33;100872.16;;;17.01;78.10
32638;BME280;19045;52.268;10.506;2022-10-30T07:40:00;100872.56;;;17.13;77.39
32638;BME280;19045;52.268;10.506;2022-10-30T07:42:27;100867.22;;;17.27;77.54
32638;BME280;19045;52.268;10.506;2022-10-30T07:44:53;100870.22;;;17.49;76.99
32638;BME280;19045;52.268;10.506;2022-10-30T07:47:21;100870.31;;;17.81;75.90
32638;BME280;19045;52.268;10.506;2022-10-30T07:49:48;100876.56;;;18.33;73.58
32638;BME280;19045;52.268;10.506;2022-10-30T07:52:15;100881.13;;;18.70;71.61
32638;BME280;19045;52.268;10.506;2022-10-30T07:54:41;100889.66;;;19.09;69.95
32638;BME280;19045;52.268;10.506;2022-10-30T07:57:08;100889.06;;;19.53;67.18
32638;BME280;19045;52.268;10.506;2022-10-30T07:59:34;100896.53;;;19.47;67.63
32638;BME280;19045;52.268;10.506;2022-10-30T08:02:01;100897.75;;;19.69;66.73
32638;BME280;19045;52.268;10.506;2022-10-30T08:04:29;100894.66;;;19.84;66.29
32638;BME280;19045;52.268;10.506;2022-10-30T08:06:56;100881.88;;;20.51;63.87
32638;BME280;19045;52.268;10.506;2022-10-30T08:09:22;100885.94;;;20.84;62.08
32638;BME280;19045;52.268;10.506;2022-10-30T08:11:49;100888.28;;;20.77;62.35
32638;BME280;19045;52.268;10.506;2022-10-30T08:14:15;100891.78;;;21.39;59.82
32638;BME280;19045;52.268;10.506;2022-10-30T08:16:42;100900.19;;;22.54;56.47
32638;BME280;19045;52.268;10.506;2022-10-30T08:19:09;100896.81;;;22.57;56.10
32638;BME280;19045;52.268;10.506;2022-10-30T08:21:37;100897.47;;;22.54;55.56
32638;BME280;19045;52.268;10.506;2022-10-30T08:24:04;100896.63;;;23.17;54.24
32638;BME280;19045;52.268;10.506;2022-10-30T08:26:30;100893.38;;;23.83;52.13
32638;BME280;19045;52.268;10.506;2022-10-30T08:28:57;100888.47;;;24.30;50.81
32638;BME280;19045;52.268;10.506;2022-10-30T08:31:24;100891.31;;;25.11;47.93
32638;BME280;19045;52.268;10.506;2022-10-30T08:33:50;100881.59;;;25.38;47.66
32638;BME280;19045;52.268;10.506;2022-10-30T08:36:17;100882.56;;;25.82;45.95
32638;BME280;19045;52.268;10.506;2022-10-30T08:38:45;100881.72;;;25.93;45.19
32638;BME280;19045;52.268;10.506;2022-10-30T08:41:11;100876.28;;;26.21;44.97
32638;BME280;19045;52.268;10.506;2022-10-30T08:43:38;100867.38;;;27.18;42.66
32638;BME280;19045;52.268;10.506;2022-10-30T08:46:05;100867.53;;;27.56;41.70
32638;BME280;19045;52.268;10.506;2022-10-30T08:48:31;100867.06;;;27.54;41.84
32638;BME280;19045;52.268;10.506;2022-10-30T08:50:58;100864.38;;;28.54;40.58
32638;BME280;19045;52.268;10.506;2022-10-30T08:53:25;100864.50;;;29.03;38.97
32638;BME280;19045;52.268;10.506;2022-10-30T08:55:53;100856.22;;;29.55;37.96
32638;BME280;19045;52.268;10.506;2022-10-30T08:58:20;100862.88;;;30.10;36.93
32638;BME280;19045;52.268;10.506;2022-10-30T09:00:46;100861.69;;;29.52;38.13
32638;BME280;19045;52.268;10.506;2022-10-30T09:03:13;100855.19;;;30.67;36.08
32638;BME280;19045;52.268;10.506;2022-10-30T09:05:39;100853.59;;;31.68;34.85
32638;BME280;19045;52.268;10.506;2022-10-30T09:08:06;100862.41;;;31.26;34.85
32638;BME280;19045;52.268;10.506;2022-10-30T09:10:33;100853.22;;;30.31;35.97
32638;BME280;19045;52.268;10.506;2022-10-30T09:13:01;100852.72;;;29.32;37.50
32638;BME280;19045;52.268;10.506;2022-10-30T09:15:28;100854.97;;;29.79;37.02
32638;BME280;19045;52.268;10.506;2022-10-30T09:17:55;100843.66;;;29.91;36.91
32638;BME280;19045;52.268;10.506;2022-10-30T09:20:22;100844.16;;;31.21;35.07
32638;BME280;19045;52.268;10.506;2022-10-30T09:22:49;100846.63;;;32.13;33.15
32638;BME280;19045;52.268;10.506;2022-10-30T09:25:16;100843.16;;;32.58;33.31
32638;BME280;19045;52.268;10.506;2022-10-30T09:27:42;100847.50;;;32.35;31.76
32638;BME280;19045;52.268;10.506;2022-10-30T09:30:11;100848.25;;;30.47;35.20
32638;BME280;19045;52.268;10.506;2022-10-30T09:32:38;100845.38;;;31.27;34.02
32638;BME280;19045;52.268;10.506;2022-10-30T09:35:06;100847.41;;;31.34;33.68
32638;BME280;19045;52.268;10.506;2022-10-30T09:37:33;100847.44;;;32.10;32.59
32638;BME280;19045;52.268;10.506;2022-10-30T09:40:00;100858.59;;;33.72;30.76
32638;BME280;19045;52.268;10.506;2022-10-30T09:42:41;100851.88;;;33.42;30.53
32638;BME280;19045;52.268;10.506;2022-10-30T09:45:20;100857.91;;;34.34;29.50
32638;BME280;19045;52.268;10.506;2022-10-30T09:47:59;100856.28;;;35.43;28.12
32638;BME280;19045;52.268;10.506;2022-10-30T09:50:31;100860.13;;;35.15;28.60
32638;BME280;19045;52.268;10.506;2022-10-30T09:53:03;100853.44;;;35.81;28.01
32638;BME280;19045;52.268;10.506;2022-10-30T09:55:40;100854.00;;;34.87;28.88
32638;BME280;19045;52.268;10.506;2022-10-30T09:58:22;100846.34;;;34.39;29.45
32638;BME280;19045;52.268;10.506;2022-10-30T10:01:04;100851.47;;;33.57;30.61
32638;BME280;19045;52.268;10.506;2022-10-30T10:03:40;100849.09;;;33.49;30.15
32638;BME280;19045;52.268;10.506;2022-10-30T10:06:14;100850.19;;;33.87;29.32
32638;BME280;19045;52.268;10.506;2022-10-30T10:08:45;100844.78;;;33.23;30.67
32638;BME280;19045;52.268;10.506;2022-10-30T10:11:15;100846.28;;;33.66;29.96
32638;BME280;19045;52.268;10.506;2022-10-30T10:13:47;100845.88;;;35.03;28.00
32638;BME280;19045;52.268;10.506;2022-10-30T10:16:18;100843.66;;;34.18;29.30
32638;BME280;19045;52.268;10.506;2022-10-30T10:18:46;100844.63;;;34.56;28.55
32638;BME280;19045;52.268;10.506;2022-10-30T10:21:22;100851.94;;;34.39;28.63
32638;BME280;19045;52.268;10.506;2022-10-30T10:23:50;100854.22;;;34.51;28.46
32638;BME280;19045;52.268;10.506;2022-10-30T10:26:29;100846.69;;;36.65;26.54
32638;BME280;19045;52.268;10.506;2022-10-30T10:29:09;100841.91;;;35.41;27.64
32638;BME280;19045;52.268;10.506;2022-10-30T10:31:42;100855.69;;;34.73;28.46
32638;BME280;19045;52.268;10.506;2022-10-30T10:34:24;100845.28;;;36.77;26.29
32638;BME280;19045;52.268;10.506;2022-10-30T10:37:01;100844.22;;;35.12;27.65
32638;BME280;19045;52.268;10.506;2022-10-30T10:39:41;100843.38;;;35.87;26.80
32638;BME280;19045;52.268;10.506;2022-10-30T10:42:18;100842.63;;;34.63;28.43
32638;BME280;19045;52.268;10.506;2022-10-30T10:44:56;100838.25;;;36.42;26.19
32638;BME280;19045;52.268;10.506;2022-10-30T10:47:38;100841.13;;;36.89;25.84
32638;BME280;19045;52.268;10.506;2022-10-30T10:50:18;100840.91;;;35.58;27.08
32638;BME280;19045;52.268;10.506;2022-10-30T10:52:51;100848.34;;;34.35;27.75
32638;BME280;19045;52.268;10.506;2022-10-30T10:55:21;100853.13;;;32.70;29.65
32638;BME280;19045;52.268;10.506;2022-10-30T10:57:50;100836.59;;;33.99;28.74
32638;BME280;19045;52.268;10.506;2022-10-30T11:00:20;100830.16;;;36.21;26.09
32638;BME280;19045;52.268;10.506;2022-10-30T11:02:52;100835.72;;;34.75;27.42
32638;BME280;19045;52.268;10.506;2022-10-30T11:05:26;100828.47;;;32.86;29.54
32638;BME280;19045;52.268;10.506;2022-10-30T11:07:58;100823.91;;;33.84;28.81
32638;BME280;19045;52.268;10.506;2022-10-30T11:10:26;100828.97;;;34.10;28.09
32638;BME280;19045;52.268;10.506;2022-10-30T11:12:53;100829.63;;;33.35;28.92
32638;BME280;19045;52.268;10.506;2022-10-30T11:15:28;100825.19;;;33.55;29.38
32638;BME280;19045;52.268;10.506;2022-10-30T11:18:00;100821.25;;;34.87;27.54
32638;BME280;19045;52.268;10.506;2022-10-30T11:20:32;100822.13;;;32.68;29.49
32638;BME280;19045;52.268;10.506;2022-10-30T11:23:01;100818.78;;;33.68;28.84
32638;BME280;19045;52.268;10.506;2022-10-30T11:25:33;100816.34;;;35.76;26.80
32638;BME280;19045;52.268;10.506;2022-10-30T11:28:02;100821.91;;;34.54;27.66
32638;BME280;19045;52.268;10.506;2022-10-30T11:30:30;100825.97;;;33.69;29.50
32638;BME280;19045;52.268;10.506;2022-10-30T11:32:59;100812.75;;;37.29;25.97
32638;BME280;19045;52.268;10.506;2022-10-30T11:35:45;100808.50;;;41.10;21.87
32638;BME280;19045;52.268;10.506;2022-10-30T11:38:17;100803.13;;;43.60;19.56
32638;BME280;19045;52.268;10.506;2022-10-30T11:40:51;100803.78;;;41.28;21.18
32638;BME280;19045;52.268;10.506;2022-10-30T11:43:26;100802.19;;;42.91;19.83
32638;BME280;19045;52.268;10.506;2022-10-30T11:46:08;100799.03;;;44.93;18.84
32638;BME280;19045;52.268;10.506;2022-10-30T11:48:41;100796.34;;;46.30;16.88
32638;BME280;19045;52.268;10.506;2022-10-30T11:51:10;100790.75;;;45.42;17.17
32638;BME280;19045;52.268;10.506;2022-10-30T11:53:39;100799.00;;;46.34;17.02
32638;BME280;19045;52.268;10.506;2022-10-30T11:56:13;100786.66;;;43.04;18.75
32638;BME280;19045;52.268;10.506;2022-10-30T11:58:43;100789.94;;;46.00;17.13
32638;BME280;19045;52.268;10.506;2022-10-30T12:01:18;100782.44;;;47.64;16.30
32638;BME280;19045;52.268;10.506;2022-10-30T12:03:47;100774.59;;;48.64;15.49
32638;BME280;19045;52.268;10.506;2022-10-30T12:06:19;100772.72;;;49.37;14.57
32638;BME280;19045;52.268;10.506;2022-10-30T12:09:09;100778.59;;;45.56;16.36
32638;BME280;19045;52.268;10.506;2022-10-30T12:11:37;100774.25;;;43.89;17.63
32638;BME280;19045;52.268;10.506;2022-10-30T12:14:14;100770.53;;;42.07;19.23
32638;BME280;19045;52.268;10.506;2022-10-30T12:16:44;100775.69;;;41.25;19.33
32638;BME280;19045;52.268;10.506;2022-10-30T12:19:14;100766.06;;;43.22;18.72
32638;BME280;19045;52.268;10.506;2022-10-30T12:21:44;100762.06;;;45.84;16.93
32638;BME280;19045;52.268;10.506;2022-10-30T12:24:17;100760.16;;;45.96;16.39
32638;BME280;19045;52.268;10.506;2022-10-30T12:26:47;100756.66;;;47.22;16.18
32638;BME280;19045;52.268;10.506;2022-10-30T12:29:16;100753.41;;;48.29;15.61
32638;BME280;19045;52.268;10.506;2022-10-30T12:31:48;100754.94;;;48.89;15.09
32638;BME280;19045;52.268;10.506;2022-10-30T12:34:29;100758.19;;;49.52;14.27
32638;BME280;19045;52.268;10.506;2022-10-30T12:37:04;100752.72;;;49.76;14.74
32638;BME280;19045;52.268;10.506;2022-10-30T12:39:44;100747.28;;;49.50;14.81
32638;BME280;19045;52.268;10.506;2022-10-30T12:42:16;100742.84;;;49.33;14.13
32638;BME280;19045;52.268;10.506;2022-10-30T12:44:50;100739.44;;;49.12;14.75
32638;BME280;19045;52.268;10.506;2022-10-30T12:47:25;100740.53;;;49.31;14.50
32638;BME280;19045;52.268;10.506;2022-10-30T12:49:59;100736.88;;;49.81;14.58